Time;durP1;ratioP1;P1;durP2;ratioP2;P2;SDS_P1;SDS_P2;PMS_P1;PMS_P2;Temp;Humidity;BMP_temperature;BMP_pressure;BME280_temperature;BME280_humidity;BME280_pressure;Samples;Min_cycle;Max_cycle;Signal;HPM_P1;HPM_P2
2023/10/01 00:00:08;;;;;;;;;;;14.80;99.90;;;;;;5077792;28;20630;-82
2023/10/01 00:02:37;;;;;;;;;;;14.70;99.90;;;;;;5080040;28;19924;-82
2023/10/01 00:05:04;;;;;;;;;;;14.70;99.90;;;;;;5100359;28;20497;-81
2023/10/01 00:07:30;;;;;;;;;;;14.70;99.90;;;;;;5097388;28;20014;-81
2023/10/01 00:09:56;;;;;;;;;;;14.70;99.90;;;;;;5094609;28;20018;-81
2023/10/01 00:12:22;;;;;;;;;;;14.70;99.90;;;;;;5098522;28;19928;-81
2023/10/01 00:14:48;;;;;;;;;;;14.60;99.90;;;;;;5091112;28;19973;-81
2023/10/01 00:17:14;;;;;;;;;;;14.60;99.90;;;;;;5086121;28;20014;-81
2023/10/01 00:19:45;;;;;;;;;;;14.50;99.90;;;;;;5112257;28;19924;-81
2023/10/01 00:22:11;;;;;;;;;;;14.50;99.90;;;;;;5078229;28;20412;-81
2023/10/01 00:24:37;;;;;;;;;;;14.50;99.90;;;;;;5117409;27;20022;-81
2023/10/01 00:27:08;;;;;;;;;;;14.40;99.90;;;;;;5098727;28;19928;-81
2023/10/01 00:29:34;;;;;;;;;;;14.50;99.90;;;;;;5095191;27;20212;-81
2023/10/01 00:32:00;;;;;;;;;;;14.40;99.90;;;;;;5098305;28;19985;-81
2023/10/01 00:34:25;;;;;;;;;;;14.40;99.90;;;;;;5125418;27;19932;-81
2023/10/01 00:36:52;;;;;;;;;;;14.50;99.90;;;;;;5081405;28;19977;-81
2023/10/01 00:39:18;;;;;;;;;;;14.50;99.90;;;;;;5095954;28;19928;-81
2023/10/01 00:41:44;;;;;;;;;;;14.50;99.90;;;;;;5079971;28;20420;-81
2023/10/01 00:44:10;;;;;;;;;;;14.50;99.90;;;;;;5077416;28;20741;-81
2023/10/01 00:46:36;;;;;;;;;;;14.50;99.90;;;;;;5076625;28;19983;-81
2023/10/01 00:49:02;;;;;;;;;;;14.50;99.90;;;;;;5078007;28;19930;-81
2023/10/01 00:51:31;;;;;;;;;;;14.40;99.90;;;;;;5096132;28;19923;-82
2023/10/01 00:53:57;;;;;;;;;;;14.40;99.90;;;;;;5077291;28;20389;-81
2023/10/01 00:56:22;;;;;;;;;;;14.50;99.90;;;;;;5089234;27;19931;-81
2023/10/01 00:58:48;;;;;;;;;;;14.40;99.90;;;;;;5100327;28;19989;-81
2023/10/01 01:01:16;;;;;;;;;;;14.40;99.90;;;;;;5096917;27;19982;-81
2023/10/01 01:03:43;;;;;;;;;;;14.40;99.90;;;;;;5097312;28;19966;-81
2023/10/01 01:06:20;;;;;;;;;;;14.30;99.90;;;;;;5080243;28;19924;-82
2023/10/01 01:08:52;;;;;;;;;;;14.30;99.90;;;;;;5118527;27;19934;-82
2023/10/01 01:11:19;;;;;;;;;;;14.30;99.90;;;;;;5098663;28;19932;-81
2023/10/01 01:13:45;;;;;;;;;;;14.30;99.90;;;;;;5120886;27;20016;-81
2023/10/01 01:16:12;;;;;;;;;;;14.30;99.90;;;;;;5084970;28;19927;-81
2023/10/01 01:18:42;;;;;;;;;;;14.30;99.90;;;;;;5098295;28;19967;-81
2023/10/01 01:21:13;;;;;;;;;;;14.30;99.90;;;;;;5109764;27;19934;-82
2023/10/01 01:23:42;;;;;;;;;;;14.30;99.90;;;;;;5082119;28;20411;-81
2023/10/01 01:26:10;;;;;;;;;;;14.30;99.90;;;;;;5100639;28;20007;-81
2023/10/01 01:28:36;;;;;;;;;;;14.30;99.90;;;;;;5086052;28;20026;-81
2023/10/01 01:31:04;;;;;;;;;;;14.30;99.90;;;;;;5087248;28;19928;-81
2023/10/01 01:33:52;;;;;;;;;;;14.30;99.90;;;;;;5100785;28;20291;-81
2023/10/01 01:36:19;;;;;;;;;;;14.40;99.90;;;;;;5095640;28;20416;-81
2023/10/01 01:39:09;;;;;;;;;;;14.30;99.90;;;;;;5077311;28;20023;-81
2023/10/01 01:41:42;;;;;;;;;;;14.40;99.90;;;;;;5077338;28;20441;-81
2023/10/01 01:44:09;;;;;;;;;;;14.40;99.90;;;;;;5085408;28;19923;-81
2023/10/01 01:46:34;;;;;;;;;;;14.40;99.90;;;;;;5077757;28;19927;-81
2023/10/01 01:49:03;;;;;;;;;;;14.40;99.90;;;;;;5099577;28;19937;-81
2023/10/01 01:51:29;;;;;;;;;;;14.40;99.90;;;;;;5130218;27;19928;-81
2023/10/01 01:53:56;;;;;;;;;;;14.40;99.90;;;;;;5093056;28;19932;-82
2023/10/01 01:56:21;;;;;;;;;;;14.40;99.90;;;;;;5100157;28;19932;-81
2023/10/01 01:58:51;;;;;;;;;;;14.40;99.90;;;;;;5099050;28;19924;-81
2023/10/01 02:03:46;;;;;;;;;;;14.40;99.90;;;;;;5092438;28;20098;-81
2023/10/01 02:06:13;;;;;;;;;;;14.50;99.90;;;;;;5100410;27;20219;-81
2023/10/01 02:08:49;;;;;;;;;;;14.50;99.90;;;;;;5117790;27;19924;-81
2023/10/01 02:11:19;;;;;;;;;;;14.50;99.90;;;;;;5132429;27;20001;-81
2023/10/01 02:13:50;;;;;;;;;;;14.50;99.90;;;;;;5097306;28;20407;-80
2023/10/01 02:19:14;;;;;;;;;;;14.50;99.90;;;;;;5100387;28;20237;-80
2023/10/01 02:21:52;;;;;;;;;;;14.50;99.90;;;;;;5132787;27;19927;-80
2023/10/01 02:24:22;;;;;;;;;;;14.50;99.90;;;;;;5099616;28;19930;-80
2023/10/01 02:26:52;;;;;;;;;;;14.50;99.90;;;;;;5082299;27;20271;-80
2023/10/01 02:29:19;;;;;;;;;;;14.50;99.90;;;;;;5095864;28;20052;-80
2023/10/01 02:31:48;;;;;;;;;;;14.50;99.90;;;;;;5099643;28;19923;-80
2023/10/01 02:34:14;;;;;;;;;;;14.50;99.90;;;;;;5083003;28;19931;-79
2023/10/01 02:36:42;;;;;;;;;;;14.50;99.90;;;;;;5128032;27;19924;-80
2023/10/01 02:39:21;;;;;;;;;;;14.50;99.90;;;;;;5083381;28;20415;-80
2023/10/01 02:44:35;;;;;;;;;;;14.50;99.90;;;;;;5130021;27;19928;-80
2023/10/01 02:47:09;;;;;;;;;;;14.50;99.90;;;;;;5131882;27;19927;-80
2023/10/01 02:49:47;;;;;;;;;;;14.50;99.90;;;;;;5097242;28;19932;-80
2023/10/01 02:52:13;;;;;;;;;;;14.50;99.90;;;;;;5084768;28;20439;-80
2023/10/01 02:54:39;;;;;;;;;;;14.50;99.90;;;;;;5080674;28;19932;-80
2023/10/01 02:57:23;;;;;;;;;;;14.50;99.90;;;;;;5084781;28;19932;-80
2023/10/01 03:02:38;;;;;;;;;;;14.50;99.90;;;;;;5092155;28;19932;-80
2023/10/01 03:05:06;;;;;;;;;;;14.50;99.90;;;;;;5082284;28;19983;-80
2023/10/01 03:07:45;;;;;;;;;;;14.60;99.90;;;;;;5085798;28;19924;-80
2023/10/01 03:10:15;;;;;;;;;;;14.50;99.90;;;;;;5082886;28;19935;-79
2023/10/01 03:12:49;;;;;;;;;;;14.50;99.90;;;;;;5086422;28;19924;-80
2023/10/01 03:17:55;;;;;;;;;;;14.60;99.90;;;;;;5097267;28;19928;-80
2023/10/01 03:23:17;;;;;;;;;;;14.60;99.90;;;;;;5125474;27;20432;-80
2023/10/01 03:26:07;;;;;;;;;;;14.60;99.90;;;;;;5135235;27;19930;-80
2023/10/01 03:31:24;;;;;;;;;;;14.60;99.90;;;;;;5097669;28;19924;-79
2023/10/01 03:33:58;;;;;;;;;;;14.60;99.90;;;;;;5083487;28;19928;-80
2023/10/01 03:36:25;;;;;;;;;;;14.60;99.90;;;;;;5097319;28;19981;-80
2023/10/01 03:38:57;;;;;;;;;;;14.60;99.90;;;;;;5086451;28;19924;-79
2023/10/01 03:41:27;;;;;;;;;;;14.60;99.90;;;;;;5097418;28;20366;-80
2023/10/01 03:44:08;;;;;;;;;;;14.60;99.90;;;;;;5097480;28;19938;-80
2023/10/01 03:46:45;;;;;;;;;;;14.60;99.90;;;;;;5082980;28;19923;-80
2023/10/01 03:52:01;;;;;;;;;;;14.60;99.90;;;;;;5100379;28;19935;-80
2023/10/01 03:54:52;;;;;;;;;;;14.60;99.90;;;;;;5080094;28;19939;-80
2023/10/01 03:57:17;;;;;;;;;;;14.60;99.90;;;;;;5096055;28;19981;-80
2023/10/01 03:59:51;;;;;;;;;;;14.60;99.90;;;;;;5083607;28;19975;-80
2023/10/01 04:02:46;;;;;;;;;;;14.60;99.90;;;;;;5083469;28;19932;-80
2023/10/01 04:07:59;;;;;;;;;;;14.60;99.90;;;;;;5098387;28;19946;-80
2023/10/01 04:13:11;;;;;;;;;;;14.60;99.90;;;;;;5101015;28;20011;-80
2023/10/01 04:15:41;;;;;;;;;;;14.60;99.90;;;;;;5088627;28;20294;-80
2023/10/01 04:18:28;;;;;;;;;;;14.60;99.90;;;;;;5090006;28;20293;-80
2023/10/01 04:23:29;;;;;;;;;;;14.60;99.90;;;;;;5136101;27;19927;-80
2023/10/01 04:25:56;;;;;;;;;;;14.70;99.90;;;;;;5102163;28;19954;-80
2023/10/01 04:28:23;;;;;;;;;;;14.70;99.90;;;;;;5099155;28;20020;-80
2023/10/01 04:30:51;;;;;;;;;;;14.70;99.90;;;;;;5103576;28;20011;-79
2023/10/01 04:33:23;;;;;;;;;;;14.70;99.90;;;;;;5088485;28;21418;-80
2023/10/01 04:35:55;;;;;;;;;;;14.70;99.90;;;;;;5115124;27;20835;-81
2023/10/01 04:38:29;;;;;;;;;;;14.70;99.90;;;;;;5088109;28;19975;-80
2023/10/01 04:40:58;;;;;;;;;;;14.70;99.90;;;;;;5087128;28;19977;-80
2023/10/01 04:43:26;;;;;;;;;;;14.70;99.90;;;;;;5080757;28;19924;-80
2023/10/01 04:45:52;;;;;;;;;;;14.70;99.90;;;;;;5101462;28;20073;-80
2023/10/01 04:48:24;;;;;;;;;;;14.80;99.90;;;;;;5101252;28;19931;-80
2023/10/01 04:50:51;;;;;;;;;;;14.70;99.90;;;;;;5100218;28;19954;-80
2023/10/01 04:53:20;;;;;;;;;;;14.80;99.90;;;;;;5097903;28;19928;-81
2023/10/01 04:56:05;;;;;;;;;;;14.80;99.90;;;;;;5101349;28;19932;-80
2023/10/01 04:58:41;;;;;;;;;;;14.80;99.90;;;;;;5089025;28;19923;-80
2023/10/01 05:01:12;;;;;;;;;;;14.80;99.90;;;;;;5084983;28;19986;-79
2023/10/01 05:03:39;;;;;;;;;;;14.80;99.90;;;;;;5101721;28;20472;-80
2023/10/01 05:06:15;;;;;;;;;;;14.80;99.90;;;;;;5084294;28;20412;-79
2023/10/01 05:08:42;;;;;;;;;;;14.80;99.90;;;;;;5121251;27;20359;-79
2023/10/01 05:11:12;;;;;;;;;;;14.80;99.90;;;;;;5131678;27;20404;-80
2023/10/01 05:13:47;;;;;;;;;;;14.80;99.90;;;;;;5137818;27;19935;-80
2023/10/01 05:16:14;;;;;;;;;;;14.80;99.90;;;;;;5087366;28;19997;-79
2023/10/01 05:18:45;;;;;;;;;;;14.80;99.90;;;;;;5103606;28;20429;-80
2023/10/01 05:21:21;;;;;;;;;;;14.80;99.90;;;;;;5085348;28;19928;-80
2023/10/01 05:23:48;;;;;;;;;;;14.80;99.90;;;;;;5099538;28;19975;-80
2023/10/01 05:26:20;;;;;;;;;;;14.80;99.90;;;;;;5079628;28;20342;-80
2023/10/01 05:28:47;;;;;;;;;;;14.80;99.90;;;;;;5082359;28;20326;-80
2023/10/01 05:31:21;;;;;;;;;;;14.80;99.90;;;;;;5085906;28;20018;-80
2023/10/01 05:33:47;;;;;;;;;;;14.80;99.90;;;;;;5087694;28;19923;-80
2023/10/01 05:36:16;;;;;;;;;;;14.80;99.90;;;;;;5084801;28;19923;-80
2023/10/01 05:38:43;;;;;;;;;;;14.70;99.90;;;;;;5105760;27;20033;-80
2023/10/01 05:41:09;;;;;;;;;;;14.70;99.90;;;;;;5100197;28;19924;-79
2023/10/01 05:43:43;;;;;;;;;;;14.70;99.90;;;;;;5085798;28;19928;-80
2023/10/01 05:46:12;;;;;;;;;;;14.70;99.90;;;;;;5082999;28;20015;-81
2023/10/01 05:48:39;;;;;;;;;;;14.60;99.90;;;;;;5087160;28;19927;-80
2023/10/01 05:51:12;;;;;;;;;;;14.60;99.90;;;;;;5101881;28;19924;-80
2023/10/01 05:53:40;;;;;;;;;;;14.60;99.90;;;;;;5084012;28;19949;-80
2023/10/01 05:56:10;;;;;;;;;;;14.60;99.90;;;;;;5085330;28;20325;-80
2023/10/01 05:58:36;;;;;;;;;;;14.60;99.90;;;;;;5083793;28;20019;-80
2023/10/01 06:01:34;;;;;;;;;;;14.60;99.90;;;;;;5102429;28;20014;-80
2023/10/01 06:03:55;;;;;;;;;;;14.60;99.90;;;;;;5095376;27;19955;-80
2023/10/01 06:06:24;;;;;;;;;;;14.60;99.90;;;;;;5083068;28;19924;-80
2023/10/01 06:08:50;;;;;;;;;;;14.60;99.90;;;;;;5117494;27;19934;-80
2023/10/01 06:11:16;;;;;;;;;;;14.60;99.90;;;;;;5083323;27;20787;-80
2023/10/01 06:13:49;;;;;;;;;;;14.60;99.90;;;;;;5101028;28;20362;-80
2023/10/01 06:16:16;;;;;;;;;;;14.70;99.90;;;;;;5085122;28;19927;-80
2023/10/01 06:18:49;;;;;;;;;;;14.70;99.90;;;;;;5082817;28;19924;-80
2023/10/01 06:21:36;;;;;;;;;;;14.70;99.90;;;;;;5121789;27;19935;-80
2023/10/01 06:24:07;;;;;;;;;;;14.60;99.90;;;;;;5109532;27;23490;-81
2023/10/01 06:27:06;;;;;;;;;;;14.70;99.90;;;;;;5096782;28;19928;-79
2023/10/01 06:29:25;;;;;;;;;;;14.70;99.90;;;;;;5095802;28;20002;-80
2023/10/01 06:32:02;;;;;;;;;;;14.70;99.90;;;;;;5082243;28;19924;-80
2023/10/01 06:34:51;;;;;;;;;;;14.70;99.90;;;;;;5103310;28;19923;-80
2023/10/01 06:37:14;;;;;;;;;;;14.80;99.90;;;;;;5096597;28;19924;-80
2023/10/01 06:39:41;;;;;;;;;;;14.80;99.90;;;;;;5116112;27;19930;-81
2023/10/01 06:42:25;;;;;;;;;;;14.70;99.90;;;;;;5086459;28;19963;-81
2023/10/01 06:44:58;;;;;;;;;;;14.80;99.90;;;;;;5096092;27;19931;-80
2023/10/01 06:47:25;;;;;;;;;;;14.80;99.90;;;;;;5102833;28;19971;-79
2023/10/01 06:50:06;;;;;;;;;;;14.80;99.90;;;;;;5099593;28;19923;-79
2023/10/01 06:52:34;;;;;;;;;;;14.80;99.90;;;;;;5102328;28;19928;-78
2023/10/01 06:55:03;;;;;;;;;;;14.80;99.90;;;;;;5131194;27;19935;-78
2023/10/01 06:57:33;;;;;;;;;;;14.80;99.90;;;;;;5083229;28;19935;-79
2023/10/01 07:00:21;;;;;;;;;;;14.80;99.90;;;;;;5113041;27;20342;-79
2023/10/01 07:02:49;;;;;;;;;;;14.80;99.90;;;;;;5082487;28;19928;-80
2023/10/01 07:05:21;;;;;;;;;;;14.80;99.90;;;;;;5085445;28;20368;-80
2023/10/01 07:07:52;;;;;;;;;;;14.80;99.90;;;;;;5098413;28;20404;-80
2023/10/01 07:10:19;;;;;;;;;;;14.80;99.90;;;;;;5084501;28;19946;-80
2023/10/01 07:12:57;;;;;;;;;;;14.80;99.90;;;;;;5097991;28;19930;-81
2023/10/01 07:15:25;;;;;;;;;;;14.80;99.90;;;;;;5104522;28;19927;-81
2023/10/01 07:17:52;;;;;;;;;;;14.80;99.90;;;;;;5092257;28;20393;-80
2023/10/01 07:20:18;;;;;;;;;;;14.80;99.90;;;;;;5096652;28;20271;-80
2023/10/01 07:22:44;;;;;;;;;;;14.90;99.90;;;;;;5116738;27;19931;-81
2023/10/01 07:25:28;;;;;;;;;;;14.90;99.90;;;;;;5083059;28;19924;-81
2023/10/01 07:27:57;;;;;;;;;;;14.90;99.90;;;;;;5085746;28;20405;-80
2023/10/01 07:30:39;;;;;;;;;;;14.90;99.90;;;;;;5079323;28;19923;-81
2023/10/01 07:33:05;;;;;;;;;;;15.00;99.90;;;;;;5114459;27;19951;-81
2023/10/01 07:35:31;;;;;;;;;;;15.00;99.90;;;;;;5085149;28;19923;-81
2023/10/01 07:38:00;;;;;;;;;;;15.00;99.90;;;;;;5102456;28;19963;-81
2023/10/01 07:40:26;;;;;;;;;;;15.00;99.90;;;;;;5105393;28;19978;-81
2023/10/01 07:42:57;;;;;;;;;;;15.10;99.90;;;;;;5085323;28;20378;-80
2023/10/01 07:45:23;;;;;;;;;;;15.10;99.90;;;;;;5086270;28;19970;-81
2023/10/01 07:47:49;;;;;;;;;;;15.10;99.90;;;;;;5088681;28;19923;-81
2023/10/01 07:50:16;;;;;;;;;;;15.10;99.90;;;;;;5103461;28;20430;-81
2023/10/01 07:52:44;;;;;;;;;;;15.20;99.90;;;;;;5103302;28;19930;-81
2023/10/01 07:58:22;;;;;;;;;;;15.30;99.90;;;;;;5097893;28;19932;-81
2023/10/01 08:00:43;;;;;;;;;;;15.40;99.90;;;;;;5099892;28;19924;-80
2023/10/01 08:05:47;;;;;;;;;;;15.50;99.90;;;;;;5133074;27;19944;-81
2023/10/01 08:08:14;;;;;;;;;;;15.60;99.90;;;;;;5097033;28;19934;-80
2023/10/01 08:10:40;;;;;;;;;;;15.70;99.90;;;;;;5133216;27;19928;-79
2023/10/01 08:13:20;;;;;;;;;;;15.80;99.90;;;;;;5081295;28;19932;-79
2023/10/01 08:15:58;;;;;;;;;;;15.80;99.90;;;;;;5102440;28;20192;-79
2023/10/01 08:18:34;;;;;;;;;;;15.90;99.90;;;;;;5103567;28;19931;-79
2023/10/01 08:21:02;;;;;;;;;;;15.90;99.90;;;;;;5133053;27;20366;-78
2023/10/01 08:23:30;;;;;;;;;;;15.90;99.90;;;;;;5079038;28;19928;-80
2023/10/01 08:25:56;;;;;;;;;;;16.00;99.90;;;;;;5115028;27;19924;-79
2023/10/01 08:30:49;;;;;;;;;;;16.00;99.90;;;;;;5101543;28;19927;-79
2023/10/01 08:33:32;;;;;;;;;;;16.10;99.90;;;;;;5085299;28;20448;-79
2023/10/01 08:36:12;;;;;;;;;;;16.10;99.90;;;;;;5101233;28;19931;-79
2023/10/01 08:38:47;;;;;;;;;;;16.10;99.90;;;;;;5088140;28;20515;-79
2023/10/01 08:41:32;;;;;;;;;;;16.10;99.90;;;;;;5102781;28;20358;-79
2023/10/01 08:44:09;;;;;;;;;;;16.20;99.90;;;;;;5083578;28;20451;-79
2023/10/01 08:46:39;;;;;;;;;;;16.20;99.90;;;;;;5082377;28;20346;-80
2023/10/01 08:49:23;;;;;;;;;;;16.20;99.90;;;;;;5137486;27;19980;-79
2023/10/01 08:51:53;;;;;;;;;;;16.20;99.90;;;;;;5100913;28;19934;-79
2023/10/01 08:54:29;;;;;;;;;;;16.30;99.90;;;;;;5087485;28;19944;-79
2023/10/01 08:56:57;;;;;;;;;;;16.40;99.90;;;;;;5101518;28;19932;-79
2023/10/01 08:59:23;;;;;;;;;;;16.50;99.90;;;;;;5084755;28;19924;-79
2023/10/01 09:01:52;;;;;;;;;;;16.60;99.90;;;;;;5085430;28;19928;-79
2023/10/01 09:04:44;;;;;;;;;;;16.70;99.90;;;;;;5101840;28;20334;-79
2023/10/01 09:07:19;;;;;;;;;;;16.90;99.90;;;;;;5133340;27;20106;-76
2023/10/01 09:09:52;;;;;;;;;;;17.10;99.90;;;;;;5085334;28;20003;-79
2023/10/01 09:12:18;;;;;;;;;;;17.20;99.90;;;;;;5102913;28;19972;-79
2023/10/01 09:14:46;;;;;;;;;;;17.20;99.90;;;;;;5082965;28;19931;-79
2023/10/01 09:17:40;;;;;;;;;;;17.30;99.90;;;;;;5099640;27;19935;-78
2023/10/01 09:20:07;;;;;;;;;;;17.30;99.90;;;;;;5096792;28;20409;-79
2023/10/01 09:25:26;;;;;;;;;;;17.50;99.90;;;;;;5095042;28;19924;-78
2023/10/01 09:28:03;;;;;;;;;;;17.50;99.90;;;;;;5113473;27;20007;-79
2023/10/01 09:30:35;;;;;;;;;;;17.60;99.90;;;;;;5080815;28;20378;-77
2023/10/01 09:33:14;;;;;;;;;;;17.80;99.90;;;;;;5081556;28;20428;-79
2023/10/01 09:35:40;;;;;;;;;;;17.90;99.90;;;;;;5079726;28;20271;-78
2023/10/01 09:38:27;;;;;;;;;;;18.00;99.90;;;;;;5079327;28;20344;-79
2023/10/01 09:40:54;;;;;;;;;;;18.00;99.90;;;;;;5086364;28;19947;-81
2023/10/01 09:43:24;;;;;;;;;;;18.10;99.90;;;;;;5097431;28;19932;-79
2023/10/01 09:45:51;;;;;;;;;;;18.20;99.90;;;;;;5098747;28;19935;-77
2023/10/01 09:48:30;;;;;;;;;;;18.20;99.90;;;;;;5082643;28;19924;-77
2023/10/01 09:51:13;;;;;;;;;;;18.20;99.90;;;;;;5085068;28;19928;-78
2023/10/01 09:54:01;;;;;;;;;;;18.20;99.90;;;;;;5097360;28;19930;-77
2023/10/01 09:56:29;;;;;;;;;;;18.20;99.90;;;;;;5083876;27;19924;-78
2023/10/01 09:59:03;;;;;;;;;;;18.20;99.90;;;;;;5085822;28;19940;-77
2023/10/01 10:01:33;;;;;;;;;;;18.20;99.90;;;;;;5113862;27;20078;-77
2023/10/01 10:04:01;;;;;;;;;;;18.30;99.90;;;;;;5084924;28;19934;-78
2023/10/01 10:06:27;;;;;;;;;;;18.30;99.90;;;;;;5080810;28;20423;-78
2023/10/01 10:09:03;;;;;;;;;;;18.30;99.90;;;;;;5083406;28;19935;-77
2023/10/01 10:11:36;;;;;;;;;;;18.40;99.90;;;;;;5100882;27;20325;-78
2023/10/01 10:14:24;;;;;;;;;;;18.40;99.90;;;;;;5083312;28;19935;-78
2023/10/01 10:16:56;;;;;;;;;;;18.40;99.90;;;;;;5084557;28;19928;-77
2023/10/01 10:19:22;;;;;;;;;;;18.40;99.90;;;;;;5101527;28;19928;-78
2023/10/01 10:24:46;;;;;;;;;;;18.50;99.90;;;;;;5097309;28;20370;-78
2023/10/01 10:27:17;;;;;;;;;;;18.50;99.90;;;;;;5083176;28;19931;-78
2023/10/01 10:30:05;;;;;;;;;;;18.60;99.90;;;;;;5098203;27;20054;-78
2023/10/01 10:32:44;;;;;;;;;;;18.70;99.90;;;;;;5082469;28;19924;-78
2023/10/01 10:35:16;;;;;;;;;;;18.80;99.90;;;;;;5082431;28;20046;-77
2023/10/01 10:37:45;;;;;;;;;;;19.00;99.90;;;;;;5100738;28;19951;-77
2023/10/01 10:42:40;;;;;;;;;;;19.20;99.90;;;;;;5102095;28;19969;-77
2023/10/01 10:45:24;;;;;;;;;;;19.20;99.90;;;;;;5095776;28;19935;-78
2023/10/01 10:48:02;;;;;;;;;;;19.30;99.90;;;;;;5082973;28;20429;-77
2023/10/01 10:50:41;;;;;;;;;;;19.40;99.90;;;;;;5133974;27;19947;-79
2023/10/01 10:53:15;;;;;;;;;;;19.40;99.90;;;;;;5094521;28;20294;-79
2023/10/01 10:56:01;;;;;;;;;;;19.40;99.90;;;;;;5086158;28;19931;-78
2023/10/01 10:58:28;;;;;;;;;;;19.40;99.90;;;;;;5113343;27;20381;-78
2023/10/01 11:00:55;;;;;;;;;;;19.40;99.90;;;;;;5098245;28;19927;-78
2023/10/01 11:03:54;;;;;;;;;;;19.30;99.90;;;;;;5082590;28;20012;-78
2023/10/01 11:06:21;;;;;;;;;;;19.30;99.90;;;;;;5094305;28;20754;-77
2023/10/01 11:08:50;;;;;;;;;;;19.40;99.90;;;;;;5099777;28;19923;-78
2023/10/01 11:11:29;;;;;;;;;;;19.30;99.90;;;;;;5094664;28;20402;-79
2023/10/01 11:14:02;;;;;;;;;;;19.40;99.90;;;;;;5084754;28;19950;-79
2023/10/01 11:16:36;;;;;;;;;;;19.40;99.90;;;;;;5081243;28;19924;-78
2023/10/01 11:19:12;;;;;;;;;;;19.50;99.90;;;;;;5083124;28;19924;-86
2023/10/01 11:21:46;;;;;;;;;;;19.60;99.90;;;;;;5098166;28;20071;-79
2023/10/01 11:24:16;;;;;;;;;;;19.70;99.90;;;;;;5100036;28;19975;-77
2023/10/01 11:27:01;;;;;;;;;;;19.90;99.90;;;;;;5095993;28;19939;-79
2023/10/01 11:29:30;;;;;;;;;;;20.00;99.90;;;;;;5090428;28;20460;-78
2023/10/01 11:31:56;;;;;;;;;;;20.00;99.90;;;;;;5099555;28;19931;-78
2023/10/01 11:34:21;;;;;;;;;;;20.10;99.90;;;;;;5094342;28;20447;-78
2023/10/01 11:36:56;;;;;;;;;;;20.20;99.90;;;;;;5100107;28;20024;-79
2023/10/01 11:39:38;;;;;;;;;;;20.20;99.90;;;;;;5082241;28;20467;-79
2023/10/01 11:42:19;;;;;;;;;;;20.20;99.90;;;;;;5081770;28;20429;-79
2023/10/01 11:44:52;;;;;;;;;;;20.20;99.90;;;;;;5065944;28;19924;-78
2023/10/01 11:48:05;;;;;;;;;;;20.20;99.90;;;;;;5082263;28;19924;-79
2023/10/01 11:50:13;;;;;;;;;;;20.20;99.90;;;;;;5079913;28;19924;-75
2023/10/01 11:52:42;;;;;;;;;;;20.20;99.90;;;;;;5081112;28;19924;-78
2023/10/01 11:55:19;;;;;;;;;;;20.30;99.90;;;;;;5083328;28;19931;-77
2023/10/01 11:57:51;;;;;;;;;;;20.30;99.90;;;;;;5059451;28;20374;-77
2023/10/01 12:00:32;;;;;;;;;;;20.30;99.90;;;;;;5082740;28;20445;-77
2023/10/01 12:02:58;;;;;;;;;;;20.40;99.90;;;;;;5076789;28;19924;-78
2023/10/01 12:05:38;;;;;;;;;;;20.40;99.90;;;;;;5081899;28;20329;-77
2023/10/01 12:08:05;;;;;;;;;;;20.50;99.90;;;;;;5065255;28;20684;-76
2023/10/01 12:10:36;;;;;;;;;;;20.50;99.90;;;;;;5099197;28;19931;-77
2023/10/01 12:13:02;;;;;;;;;;;20.60;99.90;;;;;;5081885;28;20005;-78
2023/10/01 12:15:34;;;;;;;;;;;20.60;99.90;;;;;;5067494;28;19924;-78
2023/10/01 12:18:44;;;;;;;;;;;20.60;99.90;;;;;;5081178;28;19927;-79
2023/10/01 12:20:56;;;;;;;;;;;20.70;99.90;;;;;;5098335;28;20003;-78
2023/10/01 12:23:22;;;;;;;;;;;20.70;99.90;;;;;;5097288;28;19923;-78
2023/10/01 12:28:29;;;;;;;;;;;20.70;99.90;;;;;;5096332;28;19934;-76
2023/10/01 12:31:02;;;;;;;;;;;20.70;99.90;;;;;;5104308;28;20361;-78
2023/10/01 12:33:58;;;;;;;;;;;20.80;99.90;;;;;;5101057;27;20455;-79
2023/10/01 12:36:42;;;;;;;;;;;20.80;99.90;;;;;;5105829;28;19927;-78
2023/10/01 12:44:27;;;;;;;;;;;21.00;99.90;;;;;;5101840;28;20394;-78
2023/10/01 12:46:54;;;;;;;;;;;21.10;99.90;;;;;;5098412;28;19943;-78
2023/10/01 12:49:20;;;;;;;;;;;21.10;99.90;;;;;;5104043;28;20206;-78
2023/10/01 12:51:48;;;;;;;;;;;21.10;99.90;;;;;;5083692;28;20371;-81
2023/10/01 12:54:22;;;;;;;;;;;21.10;99.90;;;;;;5082948;28;20298;-78
2023/10/01 12:57:01;;;;;;;;;;;21.20;99.90;;;;;;5087404;28;19924;-78
2023/10/01 12:59:38;;;;;;;;;;;21.20;99.90;;;;;;5084798;28;20001;-78
2023/10/01 13:02:22;;;;;;;;;;;21.30;99.90;;;;;;5086202;28;19924;-82
2023/10/01 13:05:19;;;;;;;;;;;21.40;99.90;;;;;;5086664;28;19923;-82
2023/10/01 13:07:46;;;;;;;;;;;21.50;99.90;;;;;;5084744;28;20373;-82
2023/10/01 13:10:12;;;;;;;;;;;21.50;99.90;;;;;;5101662;28;19931;-81
2023/10/01 13:12:56;;;;;;;;;;;21.60;99.90;;;;;;5095024;28;20059;-82
2023/10/01 13:15:30;;;;;;;;;;;21.70;99.90;;;;;;5101661;28;19963;-81
2023/10/01 13:18:00;;;;;;;;;;;21.70;99.90;;;;;;5130457;27;20022;-81
2023/10/01 13:20:28;;;;;;;;;;;21.90;99.90;;;;;;5085233;28;19964;-82
2023/10/01 13:23:06;;;;;;;;;;;21.80;99.90;;;;;;5085397;28;19924;-82
2023/10/01 13:25:33;;;;;;;;;;;21.90;99.90;;;;;;5098971;28;19932;-80
2023/10/01 13:28:02;;;;;;;;;;;21.90;99.90;;;;;;5098164;27;19927;-82
2023/10/01 13:30:30;;;;;;;;;;;21.90;99.90;;;;;;5098326;28;19993;-80
2023/10/01 13:33:14;;;;;;;;;;;21.80;99.90;;;;;;5104447;27;19936;-81
2023/10/01 13:35:58;;;;;;;;;;;21.80;99.90;;;;;;5113128;27;20006;-82
2023/10/01 13:38:27;;;;;;;;;;;21.80;99.90;;;;;;5085828;28;19927;-77
2023/10/01 14:11:02;;;;;;;;;;;21.70;99.90;;;;;;5101616;28;19924;-78
2023/10/01 14:13:41;;;;;;;;;;;21.70;99.90;;;;;;5099837;27;20226;-78
2023/10/01 14:16:23;;;;;;;;;;;21.70;99.90;;;;;;5083889;28;20057;-77
2023/10/01 14:18:57;;;;;;;;;;;21.60;99.90;;;;;;5103314;28;19972;-77
2023/10/01 14:21:27;;;;;;;;;;;21.60;99.90;;;;;;5062998;28;20294;-77
2023/10/01 14:26:43;;;;;;;;;;;21.50;99.90;;;;;;5063480;28;20420;-77
2023/10/01 14:29:10;;;;;;;;;;;21.50;99.90;;;;;;5080650;28;19924;-76
2023/10/01 14:31:41;;;;;;;;;;;21.40;99.90;;;;;;5064422;28;19940;-78
2023/10/01 14:34:09;;;;;;;;;;;21.40;99.90;;;;;;5045624;28;19930;-78
2023/10/01 14:36:39;;;;;;;;;;;21.40;99.90;;;;;;5061878;28;20769;-78
2023/10/01 14:39:12;;;;;;;;;;;21.40;99.90;;;;;;5062388;28;19930;-78
2023/10/01 14:41:42;;;;;;;;;;;21.30;99.90;;;;;;5064115;28;19924;-77
2023/10/01 14:44:08;;;;;;;;;;;21.30;99.90;;;;;;5063292;28;19928;-78
2023/10/01 14:46:37;;;;;;;;;;;21.30;99.90;;;;;;5043665;28;19924;-78
2023/10/01 14:49:05;;;;;;;;;;;21.30;99.90;;;;;;5063281;28;20008;-78
2023/10/01 14:51:35;;;;;;;;;;;21.20;99.90;;;;;;5047021;28;19950;-79
2023/10/01 14:54:02;;;;;;;;;;;21.20;99.90;;;;;;5080825;28;19924;-78
2023/10/01 14:56:31;;;;;;;;;;;21.20;99.90;;;;;;5102320;27;20144;-78
2023/10/01 14:59:00;;;;;;;;;;;21.10;99.90;;;;;;5100919;28;20015;-78
2023/10/01 15:01:36;;;;;;;;;;;21.10;99.90;;;;;;5096999;28;19928;-78
2023/10/01 15:04:20;;;;;;;;;;;21.10;99.90;;;;;;5096857;28;19968;-78
2023/10/01 15:06:56;;;;;;;;;;;21.10;99.90;;;;;;5080363;28;20377;-79
2023/10/01 15:09:26;;;;;;;;;;;21.10;99.90;;;;;;5098680;28;19981;-78
2023/10/01 15:11:54;;;;;;;;;;;21.10;99.90;;;;;;5099933;28;20247;-78
2023/10/01 15:14:32;;;;;;;;;;;21.10;99.90;;;;;;5098528;28;19930;-78
2023/10/01 15:16:58;;;;;;;;;;;21.10;99.90;;;;;;5099858;28;19973;-79
2023/10/01 15:19:25;;;;;;;;;;;21.20;99.90;;;;;;5101165;28;19967;-78
2023/10/01 15:21:52;;;;;;;;;;;21.20;99.90;;;;;;5100664;28;20743;-79
2023/10/01 15:24:20;;;;;;;;;;;21.20;99.90;;;;;;5097388;28;19971;-78
2023/10/01 15:26:46;;;;;;;;;;;21.10;99.90;;;;;;5082424;28;20271;-79
2023/10/01 15:29:12;;;;;;;;;;;21.10;99.90;;;;;;5098974;28;19931;-79
2023/10/01 15:31:44;;;;;;;;;;;21.10;99.90;;;;;;5100245;28;19927;-78
2023/10/01 15:34:19;;;;;;;;;;;21.10;99.90;;;;;;5084106;28;20278;-78
2023/10/01 15:39:36;;;;;;;;;;;21.10;99.90;;;;;;5099644;28;20057;-79
2023/10/01 15:42:09;;;;;;;;;;;21.10;99.90;;;;;;5100520;28;19942;-79
2023/10/01 15:44:43;;;;;;;;;;;21.10;99.90;;;;;;5097206;28;20385;-79
2023/10/01 15:47:58;;;;;;;;;;;21.10;99.90;;;;;;5081403;28;19931;-78
2023/10/01 15:50:09;;;;;;;;;;;21.00;99.90;;;;;;5089510;28;19931;-79
2023/10/01 15:52:46;;;;;;;;;;;21.00;99.90;;;;;;5116090;27;19935;-79
2023/10/01 15:55:13;;;;;;;;;;;20.90;99.90;;;;;;5084939;28;19971;-78
2023/10/01 15:57:38;;;;;;;;;;;20.90;99.90;;;;;;5088047;28;19943;-79
2023/10/01 16:00:23;;;;;;;;;;;20.90;99.90;;;;;;5097816;28;19928;-79
2023/10/01 16:02:49;;;;;;;;;;;20.80;99.90;;;;;;5103227;28;19928;-79
2023/10/01 16:05:15;;;;;;;;;;;20.80;99.90;;;;;;5090086;28;21640;-78
2023/10/01 16:07:44;;;;;;;;;;;20.80;99.90;;;;;;5101539;28;19927;-78
2023/10/01 16:10:11;;;;;;;;;;;20.70;99.90;;;;;;5086157;28;19924;-78
2023/10/01 16:12:37;;;;;;;;;;;20.70;99.90;;;;;;5088961;28;19928;-78